sensor_id;sensor_type;location;lat;lon;timestamp;P1;durP1;ratioP1;P2;durP2;ratioP2
16254;SDS011;8235;52.198;9.904;2023-07-20T00:02:24;1.23;;;1.13;;
16254;SDS011;8235;52.198;9.904;2023-07-20T00:04:51;3.03;;;1.43;;
16254;SDS011;8235;52.198;9.904;2023-07-20T00:07:17;4.67;;;1.37;;
16254;SDS011;8235;52.198;9.904;2023-07-20T00:09:44;4.10;;;1.50;;
16254;SDS011;8235;52.198;9.904;2023-07-20T00:12:11;2.93;;;1.40;;
16254;SDS011;8235;52.198;9.904;2023-07-20T00:14:38;2.27;;;1.50;;
16254;SDS011;8235;52.198;9.904;2023-07-20T00:17:05;1.63;;;1.30;;
16254;SDS011;8235;52.198;9.904;2023-07-20T00:19:32;1.50;;;1.40;;
16254;SDS011;8235;52.198;9.904;2023-07-20T00:22:00;3.97;;;1.37;;
16254;SDS011;8235;52.198;9.904;2023-07-20T00:24:26;2.43;;;1.20;;
16254;SDS011;8235;52.198;9.904;2023-07-20T00:26:53;1.60;;;1.20;;
16254;SDS011;8235;52.198;9.904;2023-07-20T00:29:21;1.73;;;1.30;;
16254;SDS011;8235;52.198;9.904;2023-07-20T00:31:47;1.40;;;1.13;;
16254;SDS011;8235;52.198;9.904;2023-07-20T00:34:14;1.17;;;1.00;;
16254;SDS011;8235;52.198;9.904;2023-07-20T00:36:40;3.23;;;1.20;;
16254;SDS011;8235;52.198;9.904;2023-07-20T00:39:07;3.33;;;1.30;;
16254;SDS011;8235;52.198;9.904;2023-07-20T00:41:34;1.20;;;1.07;;
16254;SDS011;8235;52.198;9.904;2023-07-20T00:44:00;2.03;;;1.20;;
16254;SDS011;8235;52.198;9.904;2023-07-20T00:46:28;1.70;;;1.20;;
16254;SDS011;8235;52.198;9.904;2023-07-20T00:48:55;2.40;;;1.10;;
16254;SDS011;8235;52.198;9.904;2023-07-20T00:51:22;1.90;;;1.10;;
16254;SDS011;8235;52.198;9.904;2023-07-20T00:53:49;2.03;;;1.10;;
16254;SDS011;8235;52.198;9.904;2023-07-20T00:56:16;1.30;;;1.20;;
16254;SDS011;8235;52.198;9.904;2023-07-20T00:58:43;2.60;;;1.40;;
16254;SDS011;8235;52.198;9.904;2023-07-20T01:01:10;1.87;;;1.20;;
16254;SDS011;8235;52.198;9.904;2023-07-20T01:03:38;2.50;;;1.13;;
16254;SDS011;8235;52.198;9.904;2023-07-20T01:06:07;1.87;;;1.60;;
16254;SDS011;8235;52.198;9.904;2023-07-20T01:08:43;2.83;;;1.20;;
16254;SDS011;8235;52.198;9.904;2023-07-20T01:11:15;3.17;;;1.10;;
16254;SDS011;8235;52.198;9.904;2023-07-20T01:13:45;3.67;;;1.47;;
16254;SDS011;8235;52.198;9.904;2023-07-20T01:16:12;3.60;;;1.53;;
16254;SDS011;8235;52.198;9.904;2023-07-20T01:18:39;2.70;;;1.70;;
16254;SDS011;8235;52.198;9.904;2023-07-20T01:21:08;2.90;;;1.20;;
16254;SDS011;8235;52.198;9.904;2023-07-20T01:26:54;3.83;;;1.30;;
16254;SDS011;8235;52.198;9.904;2023-07-20T01:29:47;2.60;;;1.30;;
16254;SDS011;8235;52.198;9.904;2023-07-20T01:32:28;1.40;;;1.30;;
16254;SDS011;8235;52.198;9.904;2023-07-20T01:34:57;2.90;;;1.20;;
16254;SDS011;8235;52.198;9.904;2023-07-20T01:37:25;2.70;;;1.30;;
16254;SDS011;8235;52.198;9.904;2023-07-20T01:39:54;3.67;;;1.30;;
16254;SDS011;8235;52.198;9.904;2023-07-20T01:42:21;2.80;;;1.27;;
16254;SDS011;8235;52.198;9.904;2023-07-20T01:44:50;1.63;;;1.20;;
16254;SDS011;8235;52.198;9.904;2023-07-20T01:47:17;5.97;;;1.40;;
16254;SDS011;8235;52.198;9.904;2023-07-20T01:49:45;1.93;;;1.37;;
16254;SDS011;8235;52.198;9.904;2023-07-20T01:52:11;1.53;;;1.00;;
16254;SDS011;8235;52.198;9.904;2023-07-20T01:54:38;6.40;;;1.30;;
16254;SDS011;8235;52.198;9.904;2023-07-20T01:57:04;2.80;;;1.20;;
16254;SDS011;8235;52.198;9.904;2023-07-20T01:59:31;4.63;;;1.40;;
16254;SDS011;8235;52.198;9.904;2023-07-20T02:01:57;3.13;;;1.27;;
16254;SDS011;8235;52.198;9.904;2023-07-20T02:04:24;6.33;;;1.50;;
16254;SDS011;8235;52.198;9.904;2023-07-20T02:06:52;5.90;;;1.67;;
16254;SDS011;8235;52.198;9.904;2023-07-20T02:09:18;1.97;;;1.03;;
16254;SDS011;8235;52.198;9.904;2023-07-20T02:11:45;5.07;;;1.40;;
16254;SDS011;8235;52.198;9.904;2023-07-20T02:14:11;4.57;;;1.53;;
16254;SDS011;8235;52.198;9.904;2023-07-20T02:16:37;2.93;;;1.40;;
16254;SDS011;8235;52.198;9.904;2023-07-20T02:19:04;3.90;;;1.63;;
16254;SDS011;8235;52.198;9.904;2023-07-20T02:21:32;6.33;;;1.97;;
16254;SDS011;8235;52.198;9.904;2023-07-20T02:24:00;5.20;;;1.53;;
16254;SDS011;8235;52.198;9.904;2023-07-20T02:26:26;6.27;;;2.00;;
16254;SDS011;8235;52.198;9.904;2023-07-20T02:28:53;2.70;;;1.47;;
16254;SDS011;8235;52.198;9.904;2023-07-20T02:31:19;3.67;;;1.30;;
16254;SDS011;8235;52.198;9.904;2023-07-20T02:33:46;5.67;;;1.77;;
16254;SDS011;8235;52.198;9.904;2023-07-20T02:36:12;3.77;;;1.70;;
16254;SDS011;8235;52.198;9.904;2023-07-20T02:38:39;5.53;;;1.70;;
16254;SDS011;8235;52.198;9.904;2023-07-20T02:41:07;2.40;;;1.40;;
16254;SDS011;8235;52.198;9.904;2023-07-20T02:43:33;3.63;;;1.33;;
16254;SDS011;8235;52.198;9.904;2023-07-20T02:45:59;2.87;;;1.50;;
16254;SDS011;8235;52.198;9.904;2023-07-20T02:48:26;4.67;;;1.60;;
16254;SDS011;8235;52.198;9.904;2023-07-20T02:50:52;3.00;;;1.50;;
16254;SDS011;8235;52.198;9.904;2023-07-20T02:53:19;4.63;;;1.50;;
16254;SDS011;8235;52.198;9.904;2023-07-20T02:55:45;6.70;;;1.50;;
16254;SDS011;8235;52.198;9.904;2023-07-20T02:58:14;1.47;;;1.27;;
16254;SDS011;8235;52.198;9.904;2023-07-20T03:00:42;3.37;;;1.63;;
16254;SDS011;8235;52.198;9.904;2023-07-20T03:03:08;4.20;;;1.60;;
16254;SDS011;8235;52.198;9.904;2023-07-20T03:05:35;5.00;;;1.60;;
16254;SDS011;8235;52.198;9.904;2023-07-20T03:08:03;5.27;;;1.30;;
16254;SDS011;8235;52.198;9.904;2023-07-20T03:10:31;5.03;;;1.60;;
16254;SDS011;8235;52.198;9.904;2023-07-20T03:12:57;2.90;;;1.47;;
16254;SDS011;8235;52.198;9.904;2023-07-20T03:15:25;3.17;;;1.40;;
16254;SDS011;8235;52.198;9.904;2023-07-20T03:17:52;2.60;;;1.50;;
16254;SDS011;8235;52.198;9.904;2023-07-20T03:20:18;4.70;;;1.47;;
16254;SDS011;8235;52.198;9.904;2023-07-20T03:22:45;2.47;;;1.20;;
16254;SDS011;8235;52.198;9.904;2023-07-20T03:25:12;3.57;;;1.50;;
16254;SDS011;8235;52.198;9.904;2023-07-20T03:27:39;3.17;;;1.33;;
16254;SDS011;8235;52.198;9.904;2023-07-20T03:30:06;2.07;;;1.37;;
16254;SDS011;8235;52.198;9.904;2023-07-20T03:32:35;8.83;;;1.30;;
16254;SDS011;8235;52.198;9.904;2023-07-20T03:35:02;6.97;;;1.60;;
16254;SDS011;8235;52.198;9.904;2023-07-20T03:37:29;2.87;;;1.33;;
16254;SDS011;8235;52.198;9.904;2023-07-20T03:39:56;3.10;;;1.00;;
16254;SDS011;8235;52.198;9.904;2023-07-20T03:42:23;6.40;;;1.20;;
16254;SDS011;8235;52.198;9.904;2023-07-20T03:44:49;10.07;;;1.70;;
16254;SDS011;8235;52.198;9.904;2023-07-20T03:47:16;3.70;;;1.33;;
16254;SDS011;8235;52.198;9.904;2023-07-20T03:49:43;6.57;;;1.77;;
16254;SDS011;8235;52.198;9.904;2023-07-20T03:52:10;1.27;;;0.93;;
16254;SDS011;8235;52.198;9.904;2023-07-20T03:54:36;1.27;;;0.90;;
16254;SDS011;8235;52.198;9.904;2023-07-20T03:57:03;3.23;;;0.90;;
16254;SDS011;8235;52.198;9.904;2023-07-20T03:59:30;1.03;;;0.93;;
16254;SDS011;8235;52.198;9.904;2023-07-20T04:01:56;4.27;;;1.10;;
16254;SDS011;8235;52.198;9.904;2023-07-20T04:04:23;2.47;;;0.87;;
16254;SDS011;8235;52.198;9.904;2023-07-20T04:06:51;3.20;;;1.27;;
16254;SDS011;8235;52.198;9.904;2023-07-20T04:09:17;5.57;;;1.30;;
16254;SDS011;8235;52.198;9.904;2023-07-20T04:11:44;2.87;;;1.23;;
16254;SDS011;8235;52.198;9.904;2023-07-20T04:14:10;3.60;;;1.57;;
16254;SDS011;8235;52.198;9.904;2023-07-20T04:16:36;2.37;;;1.30;;
16254;SDS011;8235;52.198;9.904;2023-07-20T04:19:03;2.87;;;1.10;;
16254;SDS011;8235;52.198;9.904;2023-07-20T04:21:30;3.87;;;1.43;;
16254;SDS011;8235;52.198;9.904;2023-07-20T04:23:58;4.50;;;1.40;;
16254;SDS011;8235;52.198;9.904;2023-07-20T04:26:24;3.57;;;1.40;;
16254;SDS011;8235;52.198;9.904;2023-07-20T04:28:50;3.87;;;1.40;;
16254;SDS011;8235;52.198;9.904;2023-07-20T04:31:17;4.13;;;1.30;;
16254;SDS011;8235;52.198;9.904;2023-07-20T04:33:44;4.03;;;1.37;;
16254;SDS011;8235;52.198;9.904;2023-07-20T04:36:10;5.87;;;1.33;;
16254;SDS011;8235;52.198;9.904;2023-07-20T04:38:38;2.73;;;1.50;;
16254;SDS011;8235;52.198;9.904;2023-07-20T04:41:06;2.57;;;1.50;;
16254;SDS011;8235;52.198;9.904;2023-07-20T04:43:32;3.13;;;1.50;;
16254;SDS011;8235;52.198;9.904;2023-07-20T04:45:59;2.30;;;1.40;;
16254;SDS011;8235;52.198;9.904;2023-07-20T04:48:25;5.90;;;1.93;;
16254;SDS011;8235;52.198;9.904;2023-07-20T04:50:52;2.57;;;1.70;;
16254;SDS011;8235;52.198;9.904;2023-07-20T04:53:18;3.03;;;2.10;;
16254;SDS011;8235;52.198;9.904;2023-07-20T04:55:48;6.57;;;1.63;;
16254;SDS011;8235;52.198;9.904;2023-07-20T04:58:18;4.37;;;1.30;;
16254;SDS011;8235;52.198;9.904;2023-07-20T05:00:44;1.93;;;1.20;;
16254;SDS011;8235;52.198;9.904;2023-07-20T05:03:11;2.77;;;1.60;;
16254;SDS011;8235;52.198;9.904;2023-07-20T05:05:37;2.77;;;1.10;;
16254;SDS011;8235;52.198;9.904;2023-07-20T05:08:04;3.67;;;1.37;;
16254;SDS011;8235;52.198;9.904;2023-07-20T05:10:30;4.83;;;1.60;;
16254;SDS011;8235;52.198;9.904;2023-07-20T05:12:57;3.03;;;1.40;;
16254;SDS011;8235;52.198;9.904;2023-07-20T05:15:25;7.30;;;1.80;;
16254;SDS011;8235;52.198;9.904;2023-07-20T05:17:51;5.07;;;1.40;;
16254;SDS011;8235;52.198;9.904;2023-07-20T05:20:18;2.43;;;1.13;;
16254;SDS011;8235;52.198;9.904;2023-07-20T05:22:45;3.50;;;1.17;;
16254;SDS011;8235;52.198;9.904;2023-07-20T05:25:11;3.47;;;0.90;;
16254;SDS011;8235;52.198;9.904;2023-07-20T05:27:38;0.70;;;0.70;;
16254;SDS011;8235;52.198;9.904;2023-07-20T05:30:06;1.77;;;1.10;;
16254;SDS011;8235;52.198;9.904;2023-07-20T05:32:34;1.80;;;1.20;;
16254;SDS011;8235;52.198;9.904;2023-07-20T05:35:01;1.23;;;0.90;;
16254;SDS011;8235;52.198;9.904;2023-07-20T05:37:27;0.60;;;0.60;;
16254;SDS011;8235;52.198;9.904;2023-07-20T05:39:54;1.13;;;0.80;;
16254;SDS011;8235;52.198;9.904;2023-07-20T05:42:20;1.10;;;0.80;;
16254;SDS011;8235;52.198;9.904;2023-07-20T05:44:47;0.70;;;0.60;;
16254;SDS011;8235;52.198;9.904;2023-07-20T05:47:14;1.63;;;0.80;;
16254;SDS011;8235;52.198;9.904;2023-07-20T05:49:42;2.73;;;1.10;;
16254;SDS011;8235;52.198;9.904;2023-07-20T05:52:09;2.20;;;1.00;;
16254;SDS011;8235;52.198;9.904;2023-07-20T05:54:35;1.03;;;1.03;;
16254;SDS011;8235;52.198;9.904;2023-07-20T05:57:02;2.37;;;1.00;;
16254;SDS011;8235;52.198;9.904;2023-07-20T05:59:29;1.63;;;0.73;;
16254;SDS011;8235;52.198;9.904;2023-07-20T06:01:55;1.33;;;0.87;;
16254;SDS011;8235;52.198;9.904;2023-07-20T06:04:22;1.43;;;1.10;;
16254;SDS011;8235;52.198;9.904;2023-07-20T06:06:50;1.10;;;1.00;;
16254;SDS011;8235;52.198;9.904;2023-07-20T06:09:16;1.03;;;0.97;;
16254;SDS011;8235;52.198;9.904;2023-07-20T06:11:45;1.90;;;1.27;;
16254;SDS011;8235;52.198;9.904;2023-07-20T06:14:12;1.80;;;1.63;;
16254;SDS011;8235;52.198;9.904;2023-07-20T06:16:38;4.20;;;1.70;;
16254;SDS011;8235;52.198;9.904;2023-07-20T06:19:05;2.73;;;2.23;;
16254;SDS011;8235;52.198;9.904;2023-07-20T06:21:32;3.57;;;2.10;;
16254;SDS011;8235;52.198;9.904;2023-07-20T06:24:00;3.07;;;2.20;;
16254;SDS011;8235;52.198;9.904;2023-07-20T06:26:26;2.57;;;2.37;;
16254;SDS011;8235;52.198;9.904;2023-07-20T06:28:53;2.47;;;2.27;;
16254;SDS011;8235;52.198;9.904;2023-07-20T06:31:20;2.87;;;2.63;;
16254;SDS011;8235;52.198;9.904;2023-07-20T06:33:46;2.80;;;2.30;;
16254;SDS011;8235;52.198;9.904;2023-07-20T06:36:13;3.03;;;2.63;;
16254;SDS011;8235;52.198;9.904;2023-07-20T06:38:39;2.67;;;2.47;;
16254;SDS011;8235;52.198;9.904;2023-07-20T06:41:08;2.90;;;2.50;;
16254;SDS011;8235;52.198;9.904;2023-07-20T06:43:35;4.07;;;2.20;;
16254;SDS011;8235;52.198;9.904;2023-07-20T06:46:01;3.00;;;2.40;;
16254;SDS011;8235;52.198;9.904;2023-07-20T06:48:28;2.43;;;2.23;;
16254;SDS011;8235;52.198;9.904;2023-07-20T06:50:54;3.90;;;2.37;;
16254;SDS011;8235;52.198;9.904;2023-07-20T06:53:21;2.50;;;2.30;;
16254;SDS011;8235;52.198;9.904;2023-07-20T06:55:47;3.17;;;2.07;;
16254;SDS011;8235;52.198;9.904;2023-07-20T06:58:15;2.40;;;2.20;;
16254;SDS011;8235;52.198;9.904;2023-07-20T07:00:42;2.07;;;1.90;;
16254;SDS011;8235;52.198;9.904;2023-07-20T07:03:09;4.57;;;2.00;;
16254;SDS011;8235;52.198;9.904;2023-07-20T07:05:36;2.23;;;2.00;;
16254;SDS011;8235;52.198;9.904;2023-07-20T07:08:03;1.80;;;1.70;;
16254;SDS011;8235;52.198;9.904;2023-07-20T07:10:30;1.87;;;1.53;;
16254;SDS011;8235;52.198;9.904;2023-07-20T07:12:57;1.73;;;1.63;;
16254;SDS011;8235;52.198;9.904;2023-07-20T07:15:25;1.80;;;1.50;;
16254;SDS011;8235;52.198;9.904;2023-07-20T07:17:51;1.80;;;1.47;;
16254;SDS011;8235;52.198;9.904;2023-07-20T07:20:18;1.87;;;1.33;;
16254;SDS011;8235;52.198;9.904;2023-07-20T07:22:44;1.63;;;1.53;;
16254;SDS011;8235;52.198;9.904;2023-07-20T07:25:11;1.50;;;1.40;;
16254;SDS011;8235;52.198;9.904;2023-07-20T07:27:38;3.20;;;2.37;;
16254;SDS011;8235;52.198;9.904;2023-07-20T07:30:05;2.27;;;2.07;;
16254;SDS011;8235;52.198;9.904;2023-07-20T07:32:33;1.97;;;1.80;;
16254;SDS011;8235;52.198;9.904;2023-07-20T07:35:00;2.00;;;1.90;;
16254;SDS011;8235;52.198;9.904;2023-07-20T07:37:26;2.60;;;1.80;;
16254;SDS011;8235;52.198;9.904;2023-07-20T07:39:54;1.63;;;1.50;;
16254;SDS011;8235;52.198;9.904;2023-07-20T07:42:20;2.23;;;1.87;;
16254;SDS011;8235;52.198;9.904;2023-07-20T07:44:47;2.40;;;2.20;;
16254;SDS011;8235;52.198;9.904;2023-07-20T07:47:13;1.97;;;1.87;;
16254;SDS011;8235;52.198;9.904;2023-07-20T07:49:41;1.90;;;1.80;;
16254;SDS011;8235;52.198;9.904;2023-07-20T07:52:07;2.40;;;2.20;;
16254;SDS011;8235;52.198;9.904;2023-07-20T07:54:34;2.00;;;1.90;;
16254;SDS011;8235;52.198;9.904;2023-07-20T07:57:00;1.63;;;1.53;;
16254;SDS011;8235;52.198;9.904;2023-07-20T07:59:27;1.83;;;1.73;;
16254;SDS011;8235;52.198;9.904;2023-07-20T08:01:54;2.20;;;1.40;;
16254;SDS011;8235;52.198;9.904;2023-07-20T08:04:21;1.70;;;1.20;;
16254;SDS011;8235;52.198;9.904;2023-07-20T08:06:49;2.80;;;1.50;;
16254;SDS011;8235;52.198;9.904;2023-07-20T08:09:16;1.47;;;1.37;;
16254;SDS011;8235;52.198;9.904;2023-07-20T08:11:42;2.37;;;1.50;;
16254;SDS011;8235;52.198;9.904;2023-07-20T08:14:09;2.17;;;1.50;;
16254;SDS011;8235;52.198;9.904;2023-07-20T08:16:35;1.53;;;1.20;;
16254;SDS011;8235;52.198;9.904;2023-07-20T08:19:01;2.30;;;1.40;;
16254;SDS011;8235;52.198;9.904;2023-07-20T08:21:28;1.57;;;1.40;;
16254;SDS011;8235;52.198;9.904;2023-07-20T08:23:56;2.00;;;1.33;;
16254;SDS011;8235;52.198;9.904;2023-07-20T08:26:22;1.20;;;1.10;;
16254;SDS011;8235;52.198;9.904;2023-07-20T08:28:49;1.33;;;0.90;;
16254;SDS011;8235;52.198;9.904;2023-07-20T08:31:15;1.10;;;0.93;;
16254;SDS011;8235;52.198;9.904;2023-07-20T08:33:45;1.57;;;1.27;;
16254;SDS011;8235;52.198;9.904;2023-07-20T08:36:11;1.70;;;1.20;;
16254;SDS011;8235;52.198;9.904;2023-07-20T08:38:38;1.60;;;1.00;;
16254;SDS011;8235;52.198;9.904;2023-07-20T08:41:06;1.20;;;1.10;;
16254;SDS011;8235;52.198;9.904;2023-07-20T08:43:33;1.20;;;1.10;;
16254;SDS011;8235;52.198;9.904;2023-07-20T08:45:59;1.83;;;1.20;;
16254;SDS011;8235;52.198;9.904;2023-07-20T08:48:27;1.80;;;1.70;;
16254;SDS011;8235;52.198;9.904;2023-07-20T08:50:54;1.73;;;1.63;;
16254;SDS011;8235;52.198;9.904;2023-07-20T08:53:22;1.67;;;1.57;;
16254;SDS011;8235;52.198;9.904;2023-07-20T08:55:49;2.37;;;1.43;;
16254;SDS011;8235;52.198;9.904;2023-07-20T08:58:18;1.73;;;1.63;;
16254;SDS011;8235;52.198;9.904;2023-07-20T09:00:45;2.25;;;1.40;;
16254;SDS011;8235;52.198;9.904;2023-07-20T09:03:15;3.08;;;1.60;;
16254;SDS011;8235;52.198;9.904;2023-07-20T09:05:41;2.47;;;1.30;;
16254;SDS011;8235;52.198;9.904;2023-07-20T09:08:08;1.20;;;1.10;;
16254;SDS011;8235;52.198;9.904;2023-07-20T09:10:34;1.25;;;1.20;;
16254;SDS011;8235;52.198;9.904;2023-07-20T09:13:01;1.02;;;0.98;;
16254;SDS011;8235;52.198;9.904;2023-07-20T09:15:29;0.82;;;0.82;;
16254;SDS011;8235;52.198;9.904;2023-07-20T09:17:56;1.25;;;1.00;;
16254;SDS011;8235;52.198;9.904;2023-07-20T09:20:22;1.58;;;0.90;;
16254;SDS011;8235;52.198;9.904;2023-07-20T09:22:50;0.73;;;0.73;;
16254;SDS011;8235;52.198;9.904;2023-07-20T09:25:17;1.73;;;0.80;;
16254;SDS011;8235;52.198;9.904;2023-07-20T09:27:45;3.25;;;1.00;;
16254;SDS011;8235;52.198;9.904;2023-07-20T09:30:13;1.33;;;0.95;;
16254;SDS011;8235;52.198;9.904;2023-07-20T09:32:42;1.30;;;0.80;;
16254;SDS011;8235;52.198;9.904;2023-07-20T09:35:12;1.05;;;0.93;;
16254;SDS011;8235;52.198;9.904;2023-07-20T09:37:41;1.02;;;0.70;;
16254;SDS011;8235;52.198;9.904;2023-07-20T09:40:14;0.80;;;0.80;;
16254;SDS011;8235;52.198;9.904;2023-07-20T09:42:42;1.90;;;0.70;;
16254;SDS011;8235;52.198;9.904;2023-07-20T09:45:09;0.85;;;0.70;;
16254;SDS011;8235;52.198;9.904;2023-07-20T09:47:36;1.02;;;0.60;;
16254;SDS011;8235;52.198;9.904;2023-07-20T09:50:05;0.93;;;0.80;;
16254;SDS011;8235;52.198;9.904;2023-07-20T09:52:37;0.77;;;0.65;;
16254;SDS011;8235;52.198;9.904;2023-07-20T09:55:06;0.82;;;0.80;;
16254;SDS011;8235;52.198;9.904;2023-07-20T09:57:34;1.33;;;0.70;;
16254;SDS011;8235;52.198;9.904;2023-07-20T10:00:04;0.50;;;0.50;;
16254;SDS011;8235;52.198;9.904;2023-07-20T10:02:40;0.77;;;0.60;;
16254;SDS011;8235;52.198;9.904;2023-07-20T10:05:10;1.45;;;0.60;;
16254;SDS011;8235;52.198;9.904;2023-07-20T10:07:40;1.02;;;0.70;;
16254;SDS011;8235;52.198;9.904;2023-07-20T10:10:11;0.63;;;0.50;;
16254;SDS011;8235;52.198;9.904;2023-07-20T10:12:39;1.10;;;0.70;;
16254;SDS011;8235;52.198;9.904;2023-07-20T10:15:09;2.08;;;0.55;;
16254;SDS011;8235;52.198;9.904;2023-07-20T10:17:39;2.00;;;0.60;;
16254;SDS011;8235;52.198;9.904;2023-07-20T10:20:16;0.60;;;0.60;;
16254;SDS011;8235;52.198;9.904;2023-07-20T10:22:45;0.50;;;0.45;;
16254;SDS011;8235;52.198;9.904;2023-07-20T10:25:14;1.00;;;0.65;;
16254;SDS011;8235;52.198;9.904;2023-07-20T10:27:42;0.40;;;0.40;;
16254;SDS011;8235;52.198;9.904;2023-07-20T10:30:09;0.47;;;0.47;;
16254;SDS011;8235;52.198;9.904;2023-07-20T10:32:36;0.80;;;0.60;;
16254;SDS011;8235;52.198;9.904;2023-07-20T10:35:11;0.70;;;0.65;;
16254;SDS011;8235;52.198;9.904;2023-07-20T10:37:53;0.50;;;0.50;;
16254;SDS011;8235;52.198;9.904;2023-07-20T10:40:23;0.77;;;0.60;;
16254;SDS011;8235;52.198;9.904;2023-07-20T10:42:59;0.65;;;0.60;;
16254;SDS011;8235;52.198;9.904;2023-07-20T10:45:33;0.93;;;0.60;;
16254;SDS011;8235;52.198;9.904;2023-07-20T10:48:14;1.23;;;0.50;;
16254;SDS011;8235;52.198;9.904;2023-07-20T10:50:41;0.43;;;0.38;;
16254;SDS011;8235;52.198;9.904;2023-07-20T10:53:14;0.80;;;0.50;;
16254;SDS011;8235;52.198;9.904;2023-07-20T10:55:42;0.55;;;0.40;;
16254;SDS011;8235;52.198;9.904;2023-07-20T10:58:11;0.47;;;0.40;;
16254;SDS011;8235;52.198;9.904;2023-07-20T11:00:54;0.50;;;0.50;;
16254;SDS011;8235;52.198;9.904;2023-07-20T11:03:26;1.02;;;0.52;;
16254;SDS011;8235;52.198;9.904;2023-07-20T11:05:53;0.80;;;0.43;;
16254;SDS011;8235;52.198;9.904;2023-07-20T11:08:38;0.47;;;0.47;;
16254;SDS011;8235;52.198;9.904;2023-07-20T11:11:20;1.15;;;0.50;;
16254;SDS011;8235;52.198;9.904;2023-07-20T11:13:53;1.02;;;0.60;;
16254;SDS011;8235;52.198;9.904;2023-07-20T11:16:20;0.98;;;0.40;;
16254;SDS011;8235;52.198;9.904;2023-07-20T11:18:59;1.95;;;0.50;;
16254;SDS011;8235;52.198;9.904;2023-07-20T11:21:25;0.38;;;0.38;;
16254;SDS011;8235;52.198;9.904;2023-07-20T11:23:53;0.50;;;0.50;;
16254;SDS011;8235;52.198;9.904;2023-07-20T11:26:21;1.70;;;0.40;;
16254;SDS011;8235;52.198;9.904;2023-07-20T11:28:48;1.33;;;0.50;;
16254;SDS011;8235;52.198;9.904;2023-07-20T11:31:16;0.75;;;0.50;;
16254;SDS011;8235;52.198;9.904;2023-07-20T11:33:43;0.88;;;0.40;;
16254;SDS011;8235;52.198;9.904;2023-07-20T11:36:10;0.75;;;0.40;;
16254;SDS011;8235;52.198;9.904;2023-07-20T11:38:36;1.40;;;0.47;;
16254;SDS011;8235;52.198;9.904;2023-07-20T11:41:05;0.93;;;0.40;;
16254;SDS011;8235;52.198;9.904;2023-07-20T11:43:31;1.55;;;0.50;;
16254;SDS011;8235;52.198;9.904;2023-07-20T11:45:58;1.48;;;0.60;;
16254;SDS011;8235;52.198;9.904;2023-07-20T11:48:26;1.02;;;0.47;;
16254;SDS011;8235;52.198;9.904;2023-07-20T11:50:52;1.33;;;0.45;;
16254;SDS011;8235;52.198;9.904;2023-07-20T11:53:18;0.82;;;0.40;;
16254;SDS011;8235;52.198;9.904;2023-07-20T11:55:46;1.50;;;0.60;;
16254;SDS011;8235;52.198;9.904;2023-07-20T11:58:14;0.40;;;0.40;;
16254;SDS011;8235;52.198;9.904;2023-07-20T12:00:41;1.38;;;0.47;;
16254;SDS011;8235;52.198;9.904;2023-07-20T12:03:10;0.50;;;0.30;;
16254;SDS011;8235;52.198;9.904;2023-07-20T12:05:38;0.60;;;0.45;;
16254;SDS011;8235;52.198;9.904;2023-07-20T12:08:04;0.73;;;0.40;;
16254;SDS011;8235;52.198;9.904;2023-07-20T12:10:31;1.60;;;0.40;;
16254;SDS011;8235;52.198;9.904;2023-07-20T12:13:01;0.90;;;0.60;;
16254;SDS011;8235;52.198;9.904;2023-07-20T12:15:30;1.63;;;0.60;;
16254;SDS011;8235;52.198;9.904;2023-07-20T12:17:57;0.52;;;0.40;;
16254;SDS011;8235;52.198;9.904;2023-07-20T12:20:25;0.57;;;0.40;;
16254;SDS011;8235;52.198;9.904;2023-07-20T12:22:53;0.40;;;0.40;;
16254;SDS011;8235;52.198;9.904;2023-07-20T12:25:23;1.23;;;0.70;;
16254;SDS011;8235;52.198;9.904;2023-07-20T12:27:49;1.05;;;0.68;;
16254;SDS011;8235;52.198;9.904;2023-07-20T12:30:15;1.88;;;0.77;;
16254;SDS011;8235;52.198;9.904;2023-07-20T12:32:44;0.57;;;0.50;;
16254;SDS011;8235;52.198;9.904;2023-07-20T12:35:11;1.20;;;0.60;;
16254;SDS011;8235;52.198;9.904;2023-07-20T12:37:39;0.50;;;0.50;;
16254;SDS011;8235;52.198;9.904;2023-07-20T12:40:07;0.60;;;0.40;;
16254;SDS011;8235;52.198;9.904;2023-07-20T12:42:35;0.98;;;0.45;;
16254;SDS011;8235;52.198;9.904;2023-07-20T12:45:02;1.40;;;0.70;;
16254;SDS011;8235;52.198;9.904;2023-07-20T12:47:29;0.80;;;0.40;;
16254;SDS011;8235;52.198;9.904;2023-07-20T12:49:57;0.80;;;0.30;;
16254;SDS011;8235;52.198;9.904;2023-07-20T12:52:23;0.30;;;0.30;;
16254;SDS011;8235;52.198;9.904;2023-07-20T12:54:50;0.60;;;0.60;;
16254;SDS011;8235;52.198;9.904;2023-07-20T12:57:17;0.63;;;0.57;;
16254;SDS011;8235;52.198;9.904;2023-07-20T12:59:44;1.08;;;0.40;;
16254;SDS011;8235;52.198;9.904;2023-07-20T13:02:10;0.60;;;0.43;;
16254;SDS011;8235;52.198;9.904;2023-07-20T13:04:37;0.80;;;0.57;;
16254;SDS011;8235;52.198;9.904;2023-07-20T13:07:05;0.50;;;0.40;;
16254;SDS011;8235;52.198;9.904;2023-07-20T13:09:34;0.40;;;0.40;;
16254;SDS011;8235;52.198;9.904;2023-07-20T13:12:00;2.83;;;0.70;;
16254;SDS011;8235;52.198;9.904;2023-07-20T13:14:27;2.38;;;0.60;;
16254;SDS011;8235;52.198;9.904;2023-07-20T13:16:54;0.50;;;0.50;;
16254;SDS011;8235;52.198;9.904;2023-07-20T13:19:21;0.45;;;0.45;;
16254;SDS011;8235;52.198;9.904;2023-07-20T13:21:47;0.50;;;0.40;;
16254;SDS011;8235;52.198;9.904;2023-07-20T13:24:16;0.80;;;0.50;;
16254;SDS011;8235;52.198;9.904;2023-07-20T13:26:42;0.40;;;0.40;;
16254;SDS011;8235;52.198;9.904;2023-07-20T13:29:09;1.05;;;0.55;;
16254;SDS011;8235;52.198;9.904;2023-07-20T13:31:35;0.47;;;0.47;;
16254;SDS011;8235;52.198;9.904;2023-07-20T13:34:02;0.40;;;0.40;;
16254;SDS011;8235;52.198;9.904;2023-07-20T13:36:29;0.82;;;0.40;;
16254;SDS011;8235;52.198;9.904;2023-07-20T13:38:55;0.30;;;0.30;;
16254;SDS011;8235;52.198;9.904;2023-07-20T13:41:23;1.02;;;0.30;;
16254;SDS011;8235;52.198;9.904;2023-07-20T13:43:49;1.17;;;0.40;;
16254;SDS011;8235;52.198;9.904;2023-07-20T13:46:16;0.38;;;0.30;;
16254;SDS011;8235;52.198;9.904;2023-07-20T13:48:42;1.75;;;0.60;;
16254;SDS011;8235;52.198;9.904;2023-07-20T13:51:09;0.63;;;0.60;;
16254;SDS011;8235;52.198;9.904;2023-07-20T13:53:35;1.17;;;0.52;;
16254;SDS011;8235;52.198;9.904;2023-07-20T13:56:02;2.65;;;0.60;;
16254;SDS011;8235;52.198;9.904;2023-07-20T13:58:33;1.33;;;0.40;;
16254;SDS011;8235;52.198;9.904;2023-07-20T14:01:03;0.45;;;0.30;;
16254;SDS011;8235;52.198;9.904;2023-07-20T14:03:30;0.85;;;0.43;;
16254;SDS011;8235;52.198;9.904;2023-07-20T14:05:56;1.10;;;0.45;;
16254;SDS011;8235;52.198;9.904;2023-07-20T14:08:23;0.93;;;0.60;;
16254;SDS011;8235;52.198;9.904;2023-07-20T14:10:49;0.45;;;0.30;;
16254;SDS011;8235;52.198;9.904;2023-07-20T14:13:16;1.05;;;0.43;;
16254;SDS011;8235;52.198;9.904;2023-07-20T14:15:44;0.70;;;0.38;;
16254;SDS011;8235;52.198;9.904;2023-07-20T14:18:10;0.77;;;0.40;;
16254;SDS011;8235;52.198;9.904;2023-07-20T14:20:37;0.45;;;0.45;;
16254;SDS011;8235;52.198;9.904;2023-07-20T14:23:03;0.65;;;0.30;;
16254;SDS011;8235;52.198;9.904;2023-07-20T14:25:30;0.57;;;0.40;;
16254;SDS011;8235;52.198;9.904;2023-07-20T14:27:57;0.40;;;0.40;;
16254;SDS011;8235;52.198;9.904;2023-07-20T14:30:24;1.08;;;0.60;;
16254;SDS011;8235;52.198;9.904;2023-07-20T14:32:52;0.55;;;0.47;;
16254;SDS011;8235;52.198;9.904;2023-07-20T14:35:18;0.40;;;0.40;;
16254;SDS011;8235;52.198;9.904;2023-07-20T14:37:45;1.15;;;0.60;;
16254;SDS011;8235;52.198;9.904;2023-07-20T14:40:12;0.40;;;0.40;;
16254;SDS011;8235;52.198;9.904;2023-07-20T14:42:39;0.95;;;0.50;;
16254;SDS011;8235;52.198;9.904;2023-07-20T14:45:05;2.28;;;0.63;;
16254;SDS011;8235;52.198;9.904;2023-07-20T14:47:33;0.55;;;0.35;;
16254;SDS011;8235;52.198;9.904;2023-07-20T14:50:01;1.30;;;0.50;;
16254;SDS011;8235;52.198;9.904;2023-07-20T14:52:28;1.20;;;0.47;;
16254;SDS011;8235;52.198;9.904;2023-07-20T14:54:55;1.38;;;0.60;;
16254;SDS011;8235;52.198;9.904;2023-07-20T14:57:21;0.55;;;0.50;;
16254;SDS011;8235;52.198;9.904;2023-07-20T14:59:48;1.65;;;0.40;;
16254;SDS011;8235;52.198;9.904;2023-07-20T15:02:15;1.08;;;0.50;;
16254;SDS011;8235;52.198;9.904;2023-07-20T15:04:45;0.85;;;0.52;;
16254;SDS011;8235;52.198;9.904;2023-07-20T15:07:13;0.77;;;0.40;;